Time;durP1;ratioP1;P1;durP2;ratioP2;P2;SDS_P1;SDS_P2;PMS_P1;PMS_P2;Temp;Humidity;BMP_temperature;BMP_pressure;BME280_temperature;BME280_humidity;BME280_pressure;Samples;Min_cycle;Max_cycle;Signal;HPM_P1;HPM_P2
2021/07/04 00:01:26;;;;;;;;;;;16.60;99.90;;;;;;4997982;28;19992;-87
2021/07/04 00:03:52;;;;;;;;;;;16.60;99.90;;;;;;4997760;28;19909;-87
2021/07/04 00:06:17;;;;;;;;;;;16.60;99.90;;;;;;4997712;28;19964;-86
2021/07/04 00:08:43;;;;;;;;;;;16.50;99.90;;;;;;4997611;28;20413;-87
2021/07/04 00:11:09;;;;;;;;;;;16.50;99.90;;;;;;4997927;28;19909;-84
2021/07/04 00:13:35;;;;;;;;;;;16.50;99.90;;;;;;4997664;28;19921;-87
2021/07/04 00:16:01;;;;;;;;;;;16.40;99.90;;;;;;4997578;28;20000;-86
2021/07/04 00:18:28;;;;;;;;;;;16.40;99.90;;;;;;4997600;28;20004;-85
2021/07/04 00:20:54;;;;;;;;;;;16.30;99.90;;;;;;5015239;28;19914;-86
2021/07/04 00:23:19;;;;;;;;;;;16.20;99.90;;;;;;5015136;28;20021;-86
2021/07/04 00:25:46;;;;;;;;;;;16.10;99.90;;;;;;4997457;28;19945;-86
2021/07/04 00:28:12;;;;;;;;;;;16.00;99.90;;;;;;5014774;28;19909;-86
2021/07/04 00:30:38;;;;;;;;;;;16.10;99.90;;;;;;4997447;28;19963;-86
2021/07/04 00:33:04;;;;;;;;;;;16.00;99.90;;;;;;5014938;28;19913;-86
2021/07/04 00:35:29;;;;;;;;;;;16.00;99.90;;;;;;5014912;28;19917;-85
2021/07/04 00:37:55;;;;;;;;;;;16.10;99.90;;;;;;4996813;28;19913;-86
2021/07/04 00:40:21;;;;;;;;;;;16.10;99.90;;;;;;4997261;28;20387;-86
2021/07/04 00:42:46;;;;;;;;;;;16.10;99.90;;;;;;4996503;28;19910;-86
2021/07/04 00:45:15;;;;;;;;;;;16.10;99.90;;;;;;4996961;28;20386;-86
2021/07/04 00:47:41;;;;;;;;;;;16.10;99.90;;;;;;4996998;28;19917;-86
2021/07/04 00:50:07;;;;;;;;;;;16.20;99.90;;;;;;4996891;28;19914;-86
2021/07/04 00:52:33;;;;;;;;;;;16.20;99.90;;;;;;5014483;28;19916;-86
2021/07/04 00:54:59;;;;;;;;;;;16.30;99.90;;;;;;4997188;28;20335;-87
2021/07/04 00:57:25;;;;;;;;;;;16.30;99.90;;;;;;4996742;28;19914;-87
2021/07/04 00:59:51;;;;;;;;;;;16.40;99.90;;;;;;4997015;28;19909;-86
2021/07/04 01:02:16;;;;;;;;;;;16.40;99.90;;;;;;5014423;28;20047;-86
2021/07/04 01:04:42;;;;;;;;;;;16.40;99.90;;;;;;4996113;28;20287;-86
2021/07/04 01:07:09;;;;;;;;;;;16.40;99.90;;;;;;5014210;28;19924;-87
2021/07/04 01:09:34;;;;;;;;;;;16.40;99.90;;;;;;4996629;28;19909;-86
2021/07/04 01:12:00;;;;;;;;;;;16.40;99.90;;;;;;4996737;28;20007;-86
2021/07/04 01:14:25;;;;;;;;;;;16.40;99.90;;;;;;4993311;28;19917;-87
2021/07/04 01:16:51;;;;;;;;;;;16.40;99.90;;;;;;4994340;28;20423;-87
2021/07/04 01:19:17;;;;;;;;;;;16.40;99.90;;;;;;5014123;28;19909;-86
2021/07/04 01:21:44;;;;;;;;;;;16.40;99.90;;;;;;5014252;28;19946;-86
2021/07/04 01:24:10;;;;;;;;;;;16.40;99.90;;;;;;4996494;28;20011;-86
2021/07/04 01:26:35;;;;;;;;;;;16.30;99.90;;;;;;4996128;28;20004;-87
2021/07/04 01:29:01;;;;;;;;;;;16.30;99.90;;;;;;4996189;28;19910;-86
2021/07/04 01:31:27;;;;;;;;;;;16.30;99.90;;;;;;4996444;28;19917;-86
2021/07/04 01:33:58;;;;;;;;;;;16.30;99.90;;;;;;5013948;28;19910;-87
2021/07/04 01:36:23;;;;;;;;;;;16.30;99.90;;;;;;4995286;28;19920;-86
2021/07/04 01:38:49;;;;;;;;;;;16.30;99.90;;;;;;4996032;28;19913;-86
2021/07/04 01:41:15;;;;;;;;;;;16.30;99.90;;;;;;4995943;28;19913;-86
2021/07/04 01:43:40;;;;;;;;;;;16.40;99.90;;;;;;4996014;28;19910;-87
2021/07/04 01:46:06;;;;;;;;;;;16.40;99.90;;;;;;4995683;28;19909;-87
2021/07/04 01:48:31;;;;;;;;;;;16.40;99.90;;;;;;5013593;28;19964;-87
2021/07/04 01:50:57;;;;;;;;;;;16.40;99.90;;;;;;5013336;28;19982;-86
2021/07/04 01:53:22;;;;;;;;;;;16.40;99.90;;;;;;4995958;28;20004;-86
2021/07/04 01:55:49;;;;;;;;;;;16.40;99.90;;;;;;4995714;28;19910;-87
2021/07/04 01:58:14;;;;;;;;;;;16.40;99.90;;;;;;4995369;28;19913;-86
2021/07/04 02:00:42;;;;;;;;;;;16.40;99.90;;;;;;4995707;28;19910;-86
2021/07/04 02:03:11;;;;;;;;;;;16.40;99.90;;;;;;5013386;28;19942;-87
2021/07/04 02:05:37;;;;;;;;;;;16.40;99.90;;;;;;4995492;28;19909;-87
2021/07/04 02:08:02;;;;;;;;;;;16.40;99.90;;;;;;4995506;28;20379;-87
2021/07/04 02:10:29;;;;;;;;;;;16.40;99.90;;;;;;4995572;28;20009;-86
2021/07/04 02:12:55;;;;;;;;;;;16.40;99.90;;;;;;5013279;28;19909;-87
2021/07/04 02:15:22;;;;;;;;;;;16.40;99.90;;;;;;4995402;28;20048;-89
2021/07/04 02:17:48;;;;;;;;;;;16.40;99.90;;;;;;4995294;28;19918;-86
2021/07/04 02:20:17;;;;;;;;;;;16.40;99.90;;;;;;5013087;28;19921;-87
2021/07/04 02:22:42;;;;;;;;;;;16.40;99.90;;;;;;5012883;28;19917;-86
2021/07/04 02:25:08;;;;;;;;;;;16.30;99.90;;;;;;4995431;28;19913;-86
2021/07/04 02:27:33;;;;;;;;;;;16.30;99.90;;;;;;4994916;28;19963;-87
2021/07/04 02:29:59;;;;;;;;;;;16.20;99.90;;;;;;4995345;28;19910;-87
2021/07/04 02:32:24;;;;;;;;;;;16.30;99.90;;;;;;5012673;28;19925;-87
2021/07/04 02:34:50;;;;;;;;;;;16.20;99.90;;;;;;4995226;28;19910;-86
2021/07/04 02:37:15;;;;;;;;;;;16.20;99.90;;;;;;4994764;28;19914;-87
2021/07/04 02:39:41;;;;;;;;;;;16.20;99.90;;;;;;4995026;28;20011;-87
2021/07/04 02:42:06;;;;;;;;;;;16.20;99.90;;;;;;4995183;28;20261;-86
2021/07/04 02:44:32;;;;;;;;;;;16.30;99.90;;;;;;4995110;28;19996;-87
2021/07/04 02:46:57;;;;;;;;;;;16.30;99.90;;;;;;4994780;28;19909;-86
2021/07/04 02:49:23;;;;;;;;;;;16.30;99.90;;;;;;4995080;28;19940;-86
2021/07/04 02:51:48;;;;;;;;;;;16.30;99.90;;;;;;4995065;28;19915;-87
2021/07/04 02:54:14;;;;;;;;;;;16.30;99.90;;;;;;5012575;28;20372;-86
2021/07/04 02:56:39;;;;;;;;;;;16.30;99.90;;;;;;5012435;28;19910;-86
2021/07/04 02:59:04;;;;;;;;;;;16.20;99.90;;;;;;4994877;28;19913;-86
2021/07/04 03:01:30;;;;;;;;;;;16.20;99.90;;;;;;5012608;28;19925;-87
2021/07/04 03:03:55;;;;;;;;;;;16.20;99.90;;;;;;4994783;28;20411;-87
2021/07/04 03:06:21;;;;;;;;;;;16.20;99.90;;;;;;5012427;28;19960;-87
2021/07/04 03:08:46;;;;;;;;;;;16.20;99.90;;;;;;4994711;28;19932;-86
2021/07/04 03:11:12;;;;;;;;;;;16.10;99.90;;;;;;4994584;28;19917;-87
2021/07/04 03:13:37;;;;;;;;;;;15.90;99.90;;;;;;4991303;28;19910;-86
2021/07/04 03:16:03;;;;;;;;;;;15.90;99.90;;;;;;4994018;28;19913;-85
2021/07/04 03:18:28;;;;;;;;;;;16.00;99.90;;;;;;4994171;28;19954;-87
2021/07/04 03:20:54;;;;;;;;;;;16.00;99.90;;;;;;4994878;28;19909;-87
2021/07/04 03:23:19;;;;;;;;;;;16.00;99.90;;;;;;4994689;28;19963;-86
2021/07/04 03:25:45;;;;;;;;;;;16.00;99.90;;;;;;4994802;28;19910;-87
2021/07/04 03:28:10;;;;;;;;;;;16.00;99.90;;;;;;4996807;28;19910;-87
2021/07/04 03:30:36;;;;;;;;;;;16.10;99.90;;;;;;4998588;28;19920;-87
2021/07/04 03:33:02;;;;;;;;;;;16.10;99.90;;;;;;4998224;28;20434;-86
2021/07/04 03:35:27;;;;;;;;;;;16.20;99.90;;;;;;5016017;28;19960;-86
2021/07/04 03:37:54;;;;;;;;;;;16.20;99.90;;;;;;4998037;28;20171;-87
2021/07/04 03:40:19;;;;;;;;;;;16.10;99.90;;;;;;4998134;28;19913;-87
2021/07/04 03:42:45;;;;;;;;;;;16.10;99.90;;;;;;4998108;28;19960;-87
2021/07/04 03:45:11;;;;;;;;;;;16.10;99.90;;;;;;4997900;28;19915;-87
2021/07/04 03:47:37;;;;;;;;;;;16.20;99.90;;;;;;4997845;28;20283;-87
2021/07/04 03:50:03;;;;;;;;;;;16.20;99.90;;;;;;4998017;28;19939;-86
2021/07/04 03:52:28;;;;;;;;;;;16.20;99.90;;;;;;4997989;28;19917;-86
2021/07/04 03:54:54;;;;;;;;;;;16.30;99.90;;;;;;4997800;28;20279;-86
2021/07/04 03:57:22;;;;;;;;;;;16.30;99.90;;;;;;4997650;28;20542;-87
2021/07/04 03:59:52;;;;;;;;;;;16.30;99.90;;;;;;4998184;28;19916;-86
2021/07/04 04:02:18;;;;;;;;;;;16.30;99.90;;;;;;4998003;28;19915;-87
2021/07/04 04:04:43;;;;;;;;;;;16.40;99.90;;;;;;4997785;28;20376;-87
2021/07/04 04:07:09;;;;;;;;;;;16.40;99.90;;;;;;4997514;28;19909;-87
2021/07/04 04:09:34;;;;;;;;;;;16.40;99.90;;;;;;4997720;28;19960;-85
2021/07/04 04:12:00;;;;;;;;;;;16.50;99.90;;;;;;4997759;28;19945;-87
2021/07/04 04:14:25;;;;;;;;;;;16.50;99.90;;;;;;5014948;28;19932;-87
2021/07/04 04:16:51;;;;;;;;;;;16.50;99.90;;;;;;4997344;28;19910;-87
2021/07/04 04:19:16;;;;;;;;;;;16.60;99.90;;;;;;4997402;28;20443;-87
2021/07/04 04:21:41;;;;;;;;;;;16.60;99.90;;;;;;4997369;28;19910;-86
2021/07/04 04:24:07;;;;;;;;;;;16.60;99.90;;;;;;4997232;28;19910;-86
2021/07/04 04:26:32;;;;;;;;;;;16.60;99.90;;;;;;4997300;28;19913;-87
2021/07/04 04:28:58;;;;;;;;;;;16.60;99.90;;;;;;5014672;28;20035;-87
2021/07/04 04:31:23;;;;;;;;;;;16.60;99.90;;;;;;4997286;28;19932;-86
2021/07/04 04:33:49;;;;;;;;;;;16.60;99.90;;;;;;5014793;28;19910;-85
2021/07/04 04:36:14;;;;;;;;;;;16.60;99.90;;;;;;4996922;28;19934;-87
2021/07/04 04:38:40;;;;;;;;;;;16.60;99.90;;;;;;5014561;28;19913;-86
2021/07/04 04:41:05;;;;;;;;;;;16.60;99.90;;;;;;4997141;28;19909;-86
2021/07/04 04:43:31;;;;;;;;;;;16.60;99.90;;;;;;4993805;28;19916;-87
2021/07/04 04:45:56;;;;;;;;;;;16.50;99.90;;;;;;4995813;28;19916;-87
2021/07/04 04:48:22;;;;;;;;;;;16.50;99.90;;;;;;4996755;28;19910;-86
2021/07/04 04:50:47;;;;;;;;;;;16.60;99.90;;;;;;5014227;28;20341;-86
2021/07/04 04:53:13;;;;;;;;;;;16.60;99.90;;;;;;4996850;28;20319;-86
2021/07/04 04:55:38;;;;;;;;;;;16.60;99.90;;;;;;4996683;28;19910;-86
2021/07/04 04:58:04;;;;;;;;;;;16.70;99.90;;;;;;4996492;28;19957;-86
2021/07/04 05:00:29;;;;;;;;;;;16.80;99.90;;;;;;4996467;28;20364;-87
2021/07/04 05:02:55;;;;;;;;;;;16.90;99.90;;;;;;4996804;28;19909;-87
2021/07/04 05:05:20;;;;;;;;;;;16.90;99.90;;;;;;4996481;28;19964;-86
2021/07/04 05:07:46;;;;;;;;;;;17.00;99.90;;;;;;4996502;28;20383;-86
2021/07/04 05:10:12;;;;;;;;;;;17.10;99.90;;;;;;4996416;28;20000;-86
2021/07/04 05:12:37;;;;;;;;;;;17.10;99.90;;;;;;4996449;28;19909;-87
2021/07/04 05:15:03;;;;;;;;;;;17.20;99.90;;;;;;5013753;28;19921;-87
2021/07/04 05:17:28;;;;;;;;;;;17.30;99.90;;;;;;4995857;28;19917;-87
2021/07/04 05:19:54;;;;;;;;;;;17.40;99.90;;;;;;4996279;28;19910;-85
2021/07/04 05:22:20;;;;;;;;;;;17.50;99.90;;;;;;4996065;28;19916;-87
2021/07/04 05:24:45;;;;;;;;;;;17.60;99.90;;;;;;4996166;28;19932;-86
2021/07/04 05:27:11;;;;;;;;;;;17.50;99.90;;;;;;4995758;28;20353;-86
2021/07/04 05:29:36;;;;;;;;;;;17.50;99.90;;;;;;4996129;28;19909;-86
2021/07/04 05:32:02;;;;;;;;;;;17.60;99.90;;;;;;4996120;28;19917;-87
2021/07/04 05:34:27;;;;;;;;;;;17.70;99.90;;;;;;4996165;28;19937;-87
2021/07/04 05:36:53;;;;;;;;;;;17.90;99.90;;;;;;4995828;28;19937;-87
2021/07/04 05:39:19;;;;;;;;;;;18.00;99.90;;;;;;4995905;28;19948;-86
2021/07/04 05:41:44;;;;;;;;;;;18.20;99.90;;;;;;4995949;28;19909;-87
2021/07/04 05:44:10;;;;;;;;;;;18.10;99.90;;;;;;4995935;28;19909;-87
2021/07/04 05:46:36;;;;;;;;;;;18.20;99.90;;;;;;4995602;28;19909;-86
2021/07/04 05:49:02;;;;;;;;;;;18.00;99.90;;;;;;5013330;28;19909;-86
2021/07/04 05:51:27;;;;;;;;;;;18.10;99.90;;;;;;5012718;28;19916;-87
2021/07/04 05:53:52;;;;;;;;;;;18.10;99.90;;;;;;4995822;28;19921;-87
2021/07/04 05:56:18;;;;;;;;;;;18.00;99.90;;;;;;4995638;28;20291;-87
2021/07/04 05:58:43;;;;;;;;;;;18.10;99.90;;;;;;4995673;28;19952;-87
2021/07/04 06:01:09;;;;;;;;;;;18.10;99.90;;;;;;4995594;28;19916;-86
2021/07/04 06:03:34;;;;;;;;;;;18.20;99.90;;;;;;5013187;28;19910;-87
2021/07/04 06:06:00;;;;;;;;;;;18.20;99.90;;;;;;4995721;28;19914;-86
2021/07/04 06:08:25;;;;;;;;;;;18.50;99.90;;;;;;5013066;28;19914;-87
2021/07/04 06:10:51;;;;;;;;;;;18.60;99.90;;;;;;4995577;28;20507;-87
2021/07/04 06:13:18;;;;;;;;;;;18.70;99.90;;;;;;4995435;28;20368;-87
2021/07/04 06:15:43;;;;;;;;;;;18.80;99.90;;;;;;5012913;28;19914;-87
2021/07/04 06:18:09;;;;;;;;;;;19.00;99.90;;;;;;5012526;28;19975;-86
2021/07/04 06:20:34;;;;;;;;;;;19.50;99.90;;;;;;4995303;28;20012;-86
2021/07/04 06:23:00;;;;;;;;;;;19.30;99.90;;;;;;5012924;28;19928;-86
2021/07/04 06:25:25;;;;;;;;;;;19.20;99.90;;;;;;4995387;28;20423;-86
2021/07/04 06:27:51;;;;;;;;;;;19.50;99.90;;;;;;4994955;28;19953;-88
2021/07/04 06:30:17;;;;;;;;;;;19.90;99.90;;;;;;5012822;28;19909;-86
2021/07/04 06:32:43;;;;;;;;;;;20.30;99.90;;;;;;4995446;28;19913;-84
2021/07/04 06:35:10;;;;;;;;;;;20.80;99.90;;;;;;4995342;28;19909;-84
2021/07/04 06:37:36;;;;;;;;;;;21.20;99.90;;;;;;5012667;28;19913;-82
2021/07/04 06:40:02;;;;;;;;;;;21.70;99.90;;;;;;5012634;28;19909;-82
2021/07/04 06:42:27;;;;;;;;;;;21.80;99.90;;;;;;4995224;28;19949;-82
2021/07/04 06:44:53;;;;;;;;;;;21.90;99.90;;;;;;4994879;28;20068;-82
2021/07/04 06:47:18;;;;;;;;;;;21.90;99.90;;;;;;5012395;28;19910;-80
2021/07/04 06:49:44;;;;;;;;;;;21.80;99.90;;;;;;4994960;28;19910;-82
2021/07/04 06:52:09;;;;;;;;;;;21.90;99.90;;;;;;4994995;28;19917;-82
2021/07/04 06:54:35;;;;;;;;;;;21.80;99.90;;;;;;5012667;28;19909;-82
2021/07/04 06:57:26;;;;;;;;;;;21.80;99.90;;;;;;5012233;28;19910;-82
2021/07/04 06:59:46;;;;;;;;;;;21.70;99.90;;;;;;5012404;28;19917;-82
2021/07/04 07:02:11;;;;;;;;;;;21.60;99.90;;;;;;4995792;28;19909;-82
2021/07/04 07:04:37;;;;;;;;;;;21.30;99.90;;;;;;5016253;28;20344;-82
2021/07/04 07:07:02;;;;;;;;;;;21.40;99.90;;;;;;4998577;28;19917;-82
2021/07/04 07:09:28;;;;;;;;;;;21.30;99.90;;;;;;4998678;28;20101;-82
2021/07/04 07:11:53;;;;;;;;;;;21.30;99.90;;;;;;4998801;28;19998;-82
2021/07/04 07:14:21;;;;;;;;;;;21.20;99.90;;;;;;4998541;28;19931;-82
2021/07/04 07:16:47;;;;;;;;;;;21.30;99.90;;;;;;4998394;28;19910;-83
2021/07/04 07:19:12;;;;;;;;;;;21.60;99.90;;;;;;4998545;28;19913;-84
2021/07/04 07:21:38;;;;;;;;;;;21.90;99.90;;;;;;4998586;28;19909;-84
2021/07/04 07:24:03;;;;;;;;;;;22.20;99.90;;;;;;4998497;28;19964;-83
2021/07/04 07:26:29;;;;;;;;;;;22.30;99.90;;;;;;5015954;28;19958;-84
2021/07/04 07:28:54;;;;;;;;;;;22.20;99.90;;;;;;4998490;28;19915;-84
2021/07/04 07:31:20;;;;;;;;;;;22.30;99.90;;;;;;4998458;28;20319;-83
2021/07/04 07:33:45;;;;;;;;;;;22.40;99.90;;;;;;5016079;28;20438;-83
2021/07/04 07:36:11;;;;;;;;;;;22.50;99.90;;;;;;4998354;28;20028;-84
2021/07/04 07:38:37;;;;;;;;;;;22.60;99.90;;;;;;4998246;28;19921;-84
2021/07/04 07:41:02;;;;;;;;;;;23.00;99.90;;;;;;4998282;28;19910;-84
2021/07/04 07:43:28;;;;;;;;;;;23.20;99.90;;;;;;5016145;28;19935;-84
2021/07/04 07:45:53;;;;;;;;;;;23.20;99.90;;;;;;4999160;28;19913;-84
2021/07/04 07:48:19;;;;;;;;;;;23.60;99.90;;;;;;4999437;28;19909;-84
2021/07/04 07:50:44;;;;;;;;;;;24.30;99.90;;;;;;4999404;28;20371;-84
2021/07/04 07:53:10;;;;;;;;;;;24.80;99.90;;;;;;4999312;28;19909;-84
2021/07/04 07:55:35;;;;;;;;;;;25.30;99.90;;;;;;4998405;28;19910;-84
2021/07/04 07:58:01;;;;;;;;;;;25.70;99.90;;;;;;5015245;28;19914;-84
2021/07/04 08:00:26;;;;;;;;;;;26.40;99.90;;;;;;5015659;28;19931;-84
2021/07/04 08:02:52;;;;;;;;;;;27.10;99.90;;;;;;4998586;28;20451;-83
2021/07/04 08:05:17;;;;;;;;;;;27.60;99.90;;;;;;4998308;28;20284;-84
2021/07/04 08:07:43;;;;;;;;;;;27.90;99.90;;;;;;5015292;28;20375;-86
2021/07/04 08:10:09;;;;;;;;;;;28.30;99.90;;;;;;4997947;28;19917;-85
2021/07/04 08:12:34;;;;;;;;;;;28.60;99.90;;;;;;4997552;28;19960;-85
2021/07/04 08:15:00;;;;;;;;;;;28.90;99.90;;;;;;4997518;28;19963;-85
2021/07/04 08:17:25;;;;;;;;;;;29.10;99.90;;;;;;4997562;28;19999;-85
2021/07/04 08:19:51;;;;;;;;;;;29.30;99.90;;;;;;4997713;28;19918;-86
2021/07/04 08:22:16;;;;;;;;;;;29.40;99.90;;;;;;4997435;28;19910;-85
2021/07/04 08:24:42;;;;;;;;;;;29.40;98.30;;;;;;4997615;28;20394;-86
2021/07/04 08:27:07;;;;;;;;;;;29.70;98.70;;;;;;4997179;28;19909;-86
2021/07/04 08:29:33;;;;;;;;;;;29.90;96.60;;;;;;4997946;28;20020;-85
2021/07/04 08:31:59;;;;;;;;;;;29.20;95.30;;;;;;4998489;28;20365;-86
2021/07/04 08:34:25;;;;;;;;;;;28.90;98.40;;;;;;4998323;28;19941;-85
2021/07/04 08:36:50;;;;;;;;;;;29.00;97.70;;;;;;4998299;28;19916;-86
2021/07/04 08:39:16;;;;;;;;;;;29.40;98.30;;;;;;4998323;28;19917;-85
2021/07/04 08:41:41;;;;;;;;;;;29.30;94.90;;;;;;5016031;28;19909;-86
2021/07/04 08:44:08;;;;;;;;;;;29.20;97.60;;;;;;4998067;28;19932;-85
2021/07/04 08:46:40;;;;;;;;;;;29.40;97.80;;;;;;4997850;28;19920;-85
2021/07/04 08:49:06;;;;;;;;;;;29.60;95.10;;;;;;4998260;28;20296;-86
2021/07/04 08:51:31;;;;;;;;;;;29.20;96.20;;;;;;4998956;28;19909;-86
2021/07/04 08:53:57;;;;;;;;;;;29.00;95.00;;;;;;4998982;28;19910;-84
2021/07/04 08:56:22;;;;;;;;;;;28.10;95.80;;;;;;4999487;28;19917;-85
2021/07/04 08:58:48;;;;;;;;;;;27.50;98.00;;;;;;5000390;28;19936;-85
2021/07/04 09:01:21;;;;;;;;;;;27.30;98.40;;;;;;4999112;28;19920;-86
2021/07/04 09:03:48;;;;;;;;;;;26.60;97.30;;;;;;5015261;28;19956;-85
2021/07/04 09:06:14;;;;;;;;;;;26.60;99.20;;;;;;4999664;28;20037;-85
2021/07/04 09:08:40;;;;;;;;;;;26.30;99.20;;;;;;4999584;28;19910;-85
2021/07/04 09:11:15;;;;;;;;;;;26.20;98.50;;;;;;5001219;28;19909;-86
2021/07/04 09:13:41;;;;;;;;;;;25.90;99.40;;;;;;4997862;28;20358;-84
2021/07/04 09:16:08;;;;;;;;;;;25.70;99.90;;;;;;5000834;28;20296;-85
2021/07/04 09:18:35;;;;;;;;;;;25.40;99.50;;;;;;4999352;28;19960;-85
2021/07/04 09:21:00;;;;;;;;;;;24.90;99.90;;;;;;4998666;28;20312;-85
2021/07/04 09:23:35;;;;;;;;;;;24.50;99.90;;;;;;5016432;28;19909;-85
2021/07/04 09:26:01;;;;;;;;;;;24.30;99.90;;;;;;4998620;28;19914;-85
2021/07/04 09:28:26;;;;;;;;;;;24.20;99.90;;;;;;5000209;28;19915;-83
2021/07/04 09:30:56;;;;;;;;;;;24.10;99.90;;;;;;5000283;28;19968;-85
2021/07/04 09:33:23;;;;;;;;;;;24.30;99.90;;;;;;5000081;28;19940;-84
2021/07/04 09:35:53;;;;;;;;;;;24.50;99.90;;;;;;5016680;28;19914;-85
2021/07/04 09:38:19;;;;;;;;;;;24.70;99.90;;;;;;4997690;28;20368;-85
2021/07/04 09:40:46;;;;;;;;;;;25.10;99.90;;;;;;4998432;28;19910;-85
2021/07/04 09:43:16;;;;;;;;;;;25.50;99.90;;;;;;4997806;28;20292;-85
2021/07/04 09:45:41;;;;;;;;;;;26.10;99.90;;;;;;4997989;28;19917;-86
2021/07/04 09:48:07;;;;;;;;;;;26.80;99.70;;;;;;4997271;28;19909;-85
2021/07/04 09:50:37;;;;;;;;;;;27.40;99.90;;;;;;4998941;28;20414;-86
2021/07/04 09:53:03;;;;;;;;;;;27.80;97.90;;;;;;4997896;28;19963;-84
2021/07/04 09:55:29;;;;;;;;;;;28.10;98.10;;;;;;4998115;28;20016;-86
2021/07/04 09:57:59;;;;;;;;;;;28.10;97.80;;;;;;4998812;28;19920;-84
2021/07/04 10:00:26;;;;;;;;;;;28.10;95.30;;;;;;4999045;28;19945;-84
2021/07/04 10:03:05;;;;;;;;;;;28.00;98.40;;;;;;4999306;28;19945;-85
2021/07/04 10:05:31;;;;;;;;;;;28.10;94.90;;;;;;4999410;28;19924;-86
2021/07/04 10:07:56;;;;;;;;;;;27.90;97.50;;;;;;4998228;28;19909;-86
2021/07/04 10:10:22;;;;;;;;;;;27.60;95.80;;;;;;4999115;28;19948;-85
2021/07/04 10:12:48;;;;;;;;;;;27.50;98.40;;;;;;4998168;28;19909;-86
2021/07/04 10:15:13;;;;;;;;;;;27.30;98.20;;;;;;4997557;28;19920;-86
2021/07/04 10:17:41;;;;;;;;;;;27.10;98.10;;;;;;5014929;28;19974;-86
2021/07/04 10:20:07;;;;;;;;;;;27.10;98.10;;;;;;5016152;28;20391;-85
2021/07/04 10:22:36;;;;;;;;;;;27.00;98.60;;;;;;4997965;28;19910;-87
2021/07/04 10:25:03;;;;;;;;;;;26.70;98.00;;;;;;4996147;28;19909;-86
2021/07/04 10:27:29;;;;;;;;;;;26.70;97.10;;;;;;4996801;28;19913;-87
2021/07/04 10:29:55;;;;;;;;;;;26.70;98.10;;;;;;4995996;28;19913;-87
2021/07/04 10:32:21;;;;;;;;;;;26.50;98.30;;;;;;5013386;28;19928;-86
2021/07/04 10:34:48;;;;;;;;;;;26.40;98.70;;;;;;4996431;28;19909;-87
2021/07/04 10:37:15;;;;;;;;;;;26.30;97.90;;;;;;4995321;28;19910;-86
2021/07/04 10:39:41;;;;;;;;;;;26.10;98.90;;;;;;5013138;28;19955;-87
2021/07/04 10:42:08;;;;;;;;;;;26.00;98.40;;;;;;4996120;28;20323;-86
2021/07/04 10:44:44;;;;;;;;;;;26.00;99.50;;;;;;4995425;28;20574;-87
2021/07/04 10:47:27;;;;;;;;;;;26.00;99.70;;;;;;4995384;28;20003;-87
2021/07/04 10:50:06;;;;;;;;;;;25.90;99.10;;;;;;5012348;28;20382;-86
2021/07/04 10:52:38;;;;;;;;;;;25.80;99.40;;;;;;4995815;28;19945;-87
2021/07/04 10:55:12;;;;;;;;;;;25.70;98.10;;;;;;4995132;28;19928;-86
2021/07/04 10:57:49;;;;;;;;;;;25.70;99.50;;;;;;4989650;28;20366;-87
2021/07/04 11:00:16;;;;;;;;;;;25.50;99.10;;;;;;4995345;28;20386;-84
2021/07/04 11:02:58;;;;;;;;;;;25.40;99.10;;;;;;4996753;28;20292;-85
2021/07/04 11:05:38;;;;;;;;;;;25.30;99.70;;;;;;4997195;28;19914;-85
2021/07/04 11:08:11;;;;;;;;;;;25.00;99.50;;;;;;4996354;28;20012;-86
2021/07/04 11:10:38;;;;;;;;;;;25.10;99.90;;;;;;4996889;28;19953;-85
2021/07/04 11:13:06;;;;;;;;;;;25.10;98.50;;;;;;5014702;28;19914;-86
2021/07/04 11:15:32;;;;;;;;;;;25.20;98.80;;;;;;4996919;28;19916;-86
2021/07/04 11:17:58;;;;;;;;;;;25.20;98.20;;;;;;4996466;28;20271;-86
2021/07/04 11:20:23;;;;;;;;;;;25.30;99.60;;;;;;5014419;28;19948;-85
2021/07/04 11:22:55;;;;;;;;;;;25.40;99.90;;;;;;4996350;28;19909;-84
2021/07/04 11:25:21;;;;;;;;;;;25.50;99.90;;;;;;4986722;28;19910;-86
2021/07/04 11:28:06;;;;;;;;;;;25.70;98.40;;;;;;4996746;28;20368;-85
2021/07/04 11:30:32;;;;;;;;;;;26.00;99.20;;;;;;5014468;28;19914;-85
2021/07/04 11:33:16;;;;;;;;;;;26.10;98.40;;;;;;4996318;28;20399;-85
2021/07/04 11:35:42;;;;;;;;;;;26.10;99.20;;;;;;4996090;28;19909;-86
2021/07/04 11:38:13;;;;;;;;;;;26.00;98.30;;;;;;4994922;28;19921;-86
2021/07/04 11:40:39;;;;;;;;;;;25.90;97.90;;;;;;4995440;28;20004;-85
2021/07/04 11:43:12;;;;;;;;;;;25.80;99.00;;;;;;4995195;28;20473;-86
2021/07/04 11:45:38;;;;;;;;;;;25.60;99.60;;;;;;5012728;28;19919;-85
2021/07/04 11:48:04;;;;;;;;;;;25.50;99.50;;;;;;5012886;28;20357;-84
2021/07/04 11:50:31;;;;;;;;;;;25.30;99.90;;;;;;5016422;28;19909;-86
2021/07/04 11:53:04;;;;;;;;;;;25.10;99.90;;;;;;4998434;28;20387;-86
2021/07/04 11:55:32;;;;;;;;;;;24.90;99.90;;;;;;4998735;28;19949;-84
2021/07/04 11:57:57;;;;;;;;;;;24.70;99.90;;;;;;4998106;28;19959;-86
2021/07/04 12:00:29;;;;;;;;;;;24.50;99.90;;;;;;4999449;28;19910;-86
2021/07/04 12:02:56;;;;;;;;;;;24.40;99.90;;;;;;4997944;28;19910;-86
2021/07/04 12:05:21;;;;;;;;;;;24.40;99.90;;;;;;5007296;28;19901;-80
2021/07/04 12:07:47;;;;;;;;;;;24.40;99.90;;;;;;5022038;28;19924;-82
2021/07/04 12:10:13;;;;;;;;;;;24.50;99.90;;;;;;5014129;28;19949;-86
2021/07/04 12:12:38;;;;;;;;;;;24.70;99.90;;;;;;5017804;28;20027;-85
2021/07/04 12:15:08;;;;;;;;;;;25.00;99.90;;;;;;5000923;28;19914;-85
2021/07/04 12:17:35;;;;;;;;;;;25.20;99.90;;;;;;5000985;28;19921;-84
2021/07/04 12:20:05;;;;;;;;;;;25.40;99.90;;;;;;5022794;28;19964;-83
2021/07/04 12:22:36;;;;;;;;;;;25.70;99.90;;;;;;5040253;28;19897;-83
2021/07/04 12:25:04;;;;;;;;;;;26.00;99.90;;;;;;5023087;28;19898;-84
2021/07/04 12:27:37;;;;;;;;;;;26.40;99.90;;;;;;5019898;28;19901;-85
2021/07/04 12:30:26;;;;;;;;;;;26.70;99.90;;;;;;5037018;28;19913;-85
2021/07/04 12:33:01;;;;;;;;;;;27.10;99.30;;;;;;4989592;28;19921;-86
2021/07/04 12:35:26;;;;;;;;;;;27.70;98.20;;;;;;5015396;28;19910;-86
2021/07/04 12:37:53;;;;;;;;;;;28.10;96.90;;;;;;4997532;28;20004;-86
2021/07/04 12:40:21;;;;;;;;;;;28.30;96.20;;;;;;4997929;28;20004;-86
2021/07/04 12:42:46;;;;;;;;;;;28.20;96.10;;;;;;4997770;28;19963;-86
2021/07/04 12:45:16;;;;;;;;;;;28.10;95.50;;;;;;4997765;28;19913;-86
2021/07/04 12:47:43;;;;;;;;;;;27.90;96.30;;;;;;4997791;28;19909;-87
2021/07/04 12:50:10;;;;;;;;;;;27.60;95.40;;;;;;4998347;28;19909;-86
2021/07/04 12:52:36;;;;;;;;;;;27.50;97.10;;;;;;4998051;28;20007;-87
2021/07/04 12:55:03;;;;;;;;;;;27.60;96.20;;;;;;4997620;28;20340;-87
2021/07/04 12:57:32;;;;;;;;;;;27.60;95.90;;;;;;4996979;28;20253;-88
2021/07/04 13:00:27;;;;;;;;;;;27.80;96.20;;;;;;4996115;28;19916;-87
2021/07/04 13:02:53;;;;;;;;;;;27.70;95.10;;;;;;4976644;28;19916;-88
2021/07/04 13:05:36;;;;;;;;;;;27.60;94.60;;;;;;5014473;28;19909;-87
2021/07/04 13:08:09;;;;;;;;;;;27.60;96.10;;;;;;5013752;28;19910;-86
2021/07/04 13:10:35;;;;;;;;;;;27.40;94.70;;;;;;4997450;28;19909;-87
2021/07/04 13:13:07;;;;;;;;;;;27.10;94.60;;;;;;4997768;28;19913;-86
2021/07/04 13:15:32;;;;;;;;;;;27.00;95.60;;;;;;4997399;28;20000;-87
2021/07/04 13:17:59;;;;;;;;;;;26.90;97.00;;;;;;4996602;28;20443;-86
2021/07/04 13:20:25;;;;;;;;;;;26.90;96.30;;;;;;4997014;28;19913;-87
2021/07/04 13:22:52;;;;;;;;;;;27.00;96.30;;;;;;4996590;28;20323;-87
2021/07/04 13:25:24;;;;;;;;;;;27.00;96.30;;;;;;4996763;28;20539;-87
2021/07/04 13:28:05;;;;;;;;;;;27.10;95.90;;;;;;4996515;28;20009;-87
2021/07/04 13:30:39;;;;;;;;;;;27.40;97.50;;;;;;4996496;28;20284;-87
2021/07/04 13:33:05;;;;;;;;;;;28.10;96.60;;;;;;4996492;28;20019;-88
2021/07/04 13:35:39;;;;;;;;;;;28.60;95.10;;;;;;4996641;28;19917;-87
2021/07/04 13:38:08;;;;;;;;;;;29.00;95.40;;;;;;4996392;28;19924;-87
2021/07/04 13:40:35;;;;;;;;;;;29.20;94.90;;;;;;4996448;28;20647;-87
2021/07/04 13:43:00;;;;;;;;;;;29.20;94.50;;;;;;5014242;28;19945;-87
2021/07/04 13:45:38;;;;;;;;;;;29.10;94.50;;;;;;4996628;28;19916;-87
2021/07/04 13:48:12;;;;;;;;;;;28.80;93.10;;;;;;4996109;28;19914;-87
2021/07/04 13:50:38;;;;;;;;;;;28.30;93.00;;;;;;5014038;28;19910;-87
2021/07/04 13:53:05;;;;;;;;;;;27.70;94.20;;;;;;4996093;28;19914;-87
2021/07/04 13:55:30;;;;;;;;;;;27.30;95.50;;;;;;5014059;28;19936;-86
2021/07/04 13:57:56;;;;;;;;;;;27.00;96.00;;;;;;4996069;28;19921;-89
2021/07/04 14:00:22;;;;;;;;;;;27.00;94.90;;;;;;4996210;28;19963;-87
2021/07/04 14:02:48;;;;;;;;;;;27.10;97.10;;;;;;4996263;28;19917;-87
2021/07/04 14:05:13;;;;;;;;;;;27.30;95.60;;;;;;4996235;28;19914;-87
2021/07/04 14:07:39;;;;;;;;;;;27.50;94.80;;;;;;4995731;28;19909;-85
2021/07/04 14:10:06;;;;;;;;;;;27.10;95.10;;;;;;4976743;28;19910;-87
2021/07/04 14:12:31;;;;;;;;;;;26.40;96.00;;;;;;4975133;28;20377;-86
2021/07/04 14:14:57;;;;;;;;;;;25.90;96.90;;;;;;4975862;28;19955;-85